Time;durP1;ratioP1;P1;durP2;ratioP2;P2;SDS_P1;SDS_P2;PMS_P1;PMS_P2;Temp;Humidity;BMP_temperature;BMP_pressure;BME280_temperature;BME280_humidity;BME280_pressure;Samples;Min_cycle;Max_cycle;Signal;HPM_P1;HPM_P2
2021/10/06 00:01:34;;;;;;;2.40;2.20;;;;;;;;;;4952889;28;20051;-80
2021/10/06 00:04:03;;;;;;;0.82;0.82;;;;;;;;;;4971011;28;20051;-80
2021/10/06 00:06:31;;;;;;;0.82;0.82;;;;;;;;;;4970110;28;20050;-80
2021/10/06 00:08:59;;;;;;;3.38;0.88;;;;;;;;;;4970452;28;20392;-80
2021/10/06 00:11:27;;;;;;;3.42;1.00;;;;;;;;;;4969997;28;20523;-80
2021/10/06 00:13:55;;;;;;;0.95;0.85;;;;;;;;;;4970535;28;20054;-80
2021/10/06 00:16:23;;;;;;;1.70;1.45;;;;;;;;;;4970923;28;20050;-80
2021/10/06 00:18:51;;;;;;;2.17;0.70;;;;;;;;;;4970413;28;20050;-81
2021/10/06 00:21:19;;;;;;;1.10;0.80;;;;;;;;;;4969884;28;20054;-80
2021/10/06 00:23:47;;;;;;;0.80;0.80;;;;;;;;;;4970969;28;20062;-81
2021/10/06 00:26:15;;;;;;;1.50;0.70;;;;;;;;;;4969633;28;20491;-81
2021/10/06 00:28:43;;;;;;;0.98;0.98;;;;;;;;;;4973588;28;20052;-81
2021/10/06 00:31:11;;;;;;;0.60;0.60;;;;;;;;;;4974552;28;20065;-81
2021/10/06 00:33:39;;;;;;;1.10;0.90;;;;;;;;;;4973776;28;20573;-81
2021/10/06 00:36:07;;;;;;;1.88;1.77;;;;;;;;;;4963572;28;20116;-81
2021/10/06 00:38:35;;;;;;;1.92;1.35;;;;;;;;;;4954627;29;20059;-81
2021/10/06 00:41:03;;;;;;;1.00;1.00;;;;;;;;;;4953549;29;20102;-81
2021/10/06 00:43:31;;;;;;;1.35;1.15;;;;;;;;;;4955064;29;20047;-80
2021/10/06 00:45:59;;;;;;;1.38;1.02;;;;;;;;;;4954581;29;20512;-80
2021/10/06 00:48:27;;;;;;;1.55;1.45;;;;;;;;;;4954809;29;20066;-80
2021/10/06 00:50:55;;;;;;;5.88;1.00;;;;;;;;;;4954093;29;20058;-81
2021/10/06 00:53:26;;;;;;;0.82;0.80;;;;;;;;;;4954462;29;20493;-81
2021/10/06 00:55:55;;;;;;;0.75;0.75;;;;;;;;;;4936407;29;20066;-81
2021/10/06 00:58:23;;;;;;;3.03;0.75;;;;;;;;;;4954570;29;20047;-81
2021/10/06 01:00:51;;;;;;;0.60;0.60;;;;;;;;;;4953408;28;20051;-81
2021/10/06 01:03:20;;;;;;;0.80;0.80;;;;;;;;;;4955608;28;20052;-81
2021/10/06 01:05:51;;;;;;;1.20;1.10;;;;;;;;;;4973338;28;20070;-80
2021/10/06 01:08:19;;;;;;;0.65;0.65;;;;;;;;;;4972800;28;20045;-80
2021/10/06 01:10:47;;;;;;;0.70;0.70;;;;;;;;;;4972504;28;20047;-81
2021/10/06 01:13:16;;;;;;;0.73;0.73;;;;;;;;;;4972910;28;20078;-80
2021/10/06 01:15:44;;;;;;;2.80;2.15;;;;;;;;;;4973904;28;20489;-81
2021/10/06 01:18:12;;;;;;;1.00;1.00;;;;;;;;;;4973338;28;20051;-81
2021/10/06 01:20:40;;;;;;;5.68;2.28;;;;;;;;;;4965630;28;20046;-81
2021/10/06 01:23:08;;;;;;;1.10;0.85;;;;;;;;;;4973838;28;20794;-80
2021/10/06 01:25:36;;;;;;;1.95;0.80;;;;;;;;;;4959952;28;20879;-80
2021/10/06 01:28:04;;;;;;;0.70;0.70;;;;;;;;;;4953523;29;20054;-80
2021/10/06 01:30:32;;;;;;;0.77;0.77;;;;;;;;;;4953609;29;20062;-81
2021/10/06 01:33:00;;;;;;;1.00;0.90;;;;;;;;;;4953739;29;20043;-81
2021/10/06 01:35:29;;;;;;;1.55;0.90;;;;;;;;;;4936564;29;20066;-81
2021/10/06 01:37:58;;;;;;;0.90;0.90;;;;;;;;;;4953553;29;20051;-81
2021/10/06 01:40:25;;;;;;;0.80;0.75;;;;;;;;;;4935636;29;20055;-81
2021/10/06 01:42:54;;;;;;;0.63;0.63;;;;;;;;;;4952890;29;20040;-81
2021/10/06 01:45:23;;;;;;;0.68;0.68;;;;;;;;;;4936478;29;20050;-80
2021/10/06 01:47:52;;;;;;;2.05;1.00;;;;;;;;;;4954097;29;20055;-81
2021/10/06 01:50:24;;;;;;;4.10;1.90;;;;;;;;;;4953299;29;20051;-82
2021/10/06 01:52:54;;;;;;;0.82;0.82;;;;;;;;;;4952877;29;20047;-81
2021/10/06 01:55:30;;;;;;;1.75;0.88;;;;;;;;;;4935975;29;20070;-81
2021/10/06 01:58:00;;;;;;;1.95;1.40;;;;;;;;;;4965349;28;20043;-81
2021/10/06 02:00:28;;;;;;;2.83;1.95;;;;;;;;;;4967611;28;20046;-81
2021/10/06 02:02:56;;;;;;;1.15;0.80;;;;;;;;;;4952935;28;20052;-82
2021/10/06 02:05:25;;;;;;;0.80;0.80;;;;;;;;;;4966706;28;20051;-82
2021/10/06 02:07:53;;;;;;;0.70;0.70;;;;;;;;;;4972740;28;20054;-82
2021/10/06 02:10:21;;;;;;;1.20;0.88;;;;;;;;;;4955204;28;20054;-82
2021/10/06 02:12:49;;;;;;;1.63;1.27;;;;;;;;;;4954457;28;20043;-83
2021/10/06 02:15:17;;;;;;;1.38;1.27;;;;;;;;;;4972878;28;20070;-82
2021/10/06 02:17:45;;;;;;;0.95;0.95;;;;;;;;;;4972047;28;20043;-82
2021/10/06 02:20:13;;;;;;;0.70;0.70;;;;;;;;;;4972228;28;20062;-82
2021/10/06 02:22:41;;;;;;;0.88;0.88;;;;;;;;;;4968810;28;20044;-82
2021/10/06 02:25:09;;;;;;;1.10;1.00;;;;;;;;;;4962172;28;20058;-82
2021/10/06 02:27:37;;;;;;;0.80;0.80;;;;;;;;;;4961251;28;20059;-82
2021/10/06 02:30:06;;;;;;;0.70;0.70;;;;;;;;;;4961499;28;20519;-82
2021/10/06 02:32:36;;;;;;;0.80;0.80;;;;;;;;;;4939100;28;20050;-82
2021/10/06 02:35:06;;;;;;;0.70;0.70;;;;;;;;;;4959195;28;20062;-82
2021/10/06 02:37:34;;;;;;;1.63;1.52;;;;;;;;;;4971867;28;20046;-82
2021/10/06 02:40:02;;;;;;;2.85;1.45;;;;;;;;;;4937989;28;20535;-82
2021/10/06 02:42:30;;;;;;;1.00;0.90;;;;;;;;;;4971159;28;20039;-82
2021/10/06 02:44:58;;;;;;;1.75;1.10;;;;;;;;;;4954045;28;20058;-82
2021/10/06 02:47:27;;;;;;;1.10;0.80;;;;;;;;;;4954902;28;20050;-82
2021/10/06 02:49:55;;;;;;;0.88;0.88;;;;;;;;;;4971250;28;20050;-82
2021/10/06 02:52:23;;;;;;;1.35;0.80;;;;;;;;;;4971564;28;20050;-82
2021/10/06 02:54:51;;;;;;;0.80;0.80;;;;;;;;;;4971530;28;20401;-82
2021/10/06 02:57:19;;;;;;;0.77;0.77;;;;;;;;;;4970717;28;20039;-82
2021/10/06 02:59:47;;;;;;;5.28;2.08;;;;;;;;;;4971776;28;20051;-82
2021/10/06 03:02:15;;;;;;;0.80;0.80;;;;;;;;;;4970857;28;20054;-82
2021/10/06 03:04:43;;;;;;;0.70;0.70;;;;;;;;;;4971661;28;20054;-82
2021/10/06 03:07:11;;;;;;;0.70;0.70;;;;;;;;;;4971743;28;20407;-81
2021/10/06 03:09:39;;;;;;;2.17;0.93;;;;;;;;;;4971348;28;20505;-81
2021/10/06 03:12:07;;;;;;;0.80;0.75;;;;;;;;;;4952760;28;20074;-81
2021/10/06 03:18:07;;;;;;;0.70;0.70;;;;;;;;;;5160045;23;20047;-82
2021/10/06 03:20:36;;;;;;;1.55;0.80;;;;;;;;;;4934574;29;20059;-82
2021/10/06 03:26:22;;;;;;;0.77;0.77;;;;;;;;;;5859784;23;20047;-82
2021/10/06 03:28:50;;;;;;;1.13;1.08;;;;;;;;;;4968818;28;20817;-82
2021/10/06 03:31:18;;;;;;;1.98;1.38;;;;;;;;;;4953658;28;20081;-82
2021/10/06 03:33:46;;;;;;;4.05;1.23;;;;;;;;;;4970993;28;20062;-81
2021/10/06 03:36:14;;;;;;;1.55;1.20;;;;;;;;;;4970093;28;20058;-81
2021/10/06 03:38:42;;;;;;;0.70;0.70;;;;;;;;;;4969562;28;20054;-82
2021/10/06 03:41:10;;;;;;;0.90;0.90;;;;;;;;;;4969566;28;20688;-81
2021/10/06 03:43:38;;;;;;;0.75;0.75;;;;;;;;;;4971248;28;20065;-81
2021/10/06 03:46:06;;;;;;;2.17;0.90;;;;;;;;;;4969533;28;20051;-80
2021/10/06 03:48:34;;;;;;;5.50;2.05;;;;;;;;;;4971416;28;20058;-81
2021/10/06 03:51:01;;;;;;;0.63;0.63;;;;;;;;;;4969052;28;20046;-81
2021/10/06 03:53:29;;;;;;;1.65;1.55;;;;;;;;;;4969443;28;20054;-81
2021/10/06 03:55:57;;;;;;;2.97;0.95;;;;;;;;;;4969316;28;20053;-82
2021/10/06 03:58:25;;;;;;;1.48;1.13;;;;;;;;;;4966026;28;20043;-82
2021/10/06 04:00:53;;;;;;;2.53;1.10;;;;;;;;;;4950965;28;20047;-81
2021/10/06 04:03:22;;;;;;;0.93;0.93;;;;;;;;;;4967041;28;20047;-82
2021/10/06 04:05:50;;;;;;;0.90;0.90;;;;;;;;;;4969099;28;20047;-82
2021/10/06 04:08:19;;;;;;;1.15;1.15;;;;;;;;;;4953717;28;20051;-81
2021/10/06 04:10:47;;;;;;;1.88;1.40;;;;;;;;;;4970228;28;20047;-80
2021/10/06 04:13:15;;;;;;;1.05;0.90;;;;;;;;;;4970076;28;20065;-80
2021/10/06 04:15:43;;;;;;;0.90;0.80;;;;;;;;;;4970945;28;20051;-80
2021/10/06 04:18:11;;;;;;;1.02;1.00;;;;;;;;;;4969043;28;20051;-80
2021/10/06 04:20:39;;;;;;;0.63;0.63;;;;;;;;;;4968786;28;20055;-80
2021/10/06 04:23:07;;;;;;;1.20;0.73;;;;;;;;;;4970465;28;20051;-80
2021/10/06 04:25:40;;;;;;;0.75;0.75;;;;;;;;;;4970273;28;20051;-80
2021/10/06 04:28:08;;;;;;;2.90;1.30;;;;;;;;;;4968931;28;20059;-80
2021/10/06 04:30:36;;;;;;;0.85;0.85;;;;;;;;;;4970334;28;20094;-82
2021/10/06 04:33:04;;;;;;;6.00;0.93;;;;;;;;;;4968978;28;20050;-80
2021/10/06 04:35:32;;;;;;;1.20;0.93;;;;;;;;;;4965513;28;20050;-80
2021/10/06 04:38:00;;;;;;;5.30;0.90;;;;;;;;;;4950730;28;20091;-80
2021/10/06 04:40:28;;;;;;;2.80;0.85;;;;;;;;;;4950616;29;20058;-79
2021/10/06 04:42:56;;;;;;;0.77;0.70;;;;;;;;;;4950166;28;20055;-79
2021/10/06 04:45:24;;;;;;;1.33;1.23;;;;;;;;;;4950753;28;20051;-80
2021/10/06 04:47:52;;;;;;;3.88;2.33;;;;;;;;;;4950928;29;20062;-79
2021/10/06 04:50:22;;;;;;;3.95;0.85;;;;;;;;;;4950593;28;20194;-81
2021/10/06 04:52:50;;;;;;;1.23;0.93;;;;;;;;;;4950395;28;20609;-80
2021/10/06 04:55:18;;;;;;;2.58;1.85;;;;;;;;;;4955818;28;20058;-80
2021/10/06 04:57:46;;;;;;;3.22;1.13;;;;;;;;;;4950224;28;20124;-80
2021/10/06 05:00:14;;;;;;;2.35;0.90;;;;;;;;;;4951248;29;20048;-81
2021/10/06 05:02:42;;;;;;;3.15;1.08;;;;;;;;;;4948873;29;20068;-82
2021/10/06 05:05:10;;;;;;;1.30;1.23;;;;;;;;;;4965936;28;20051;-83
2021/10/06 05:07:38;;;;;;;2.22;1.40;;;;;;;;;;4970184;28;20492;-83
2021/10/06 05:10:06;;;;;;;0.77;0.77;;;;;;;;;;4968924;28;20578;-82
2021/10/06 05:12:35;;;;;;;1.60;0.95;;;;;;;;;;4968809;28;20051;-81
2021/10/06 05:15:03;;;;;;;3.47;1.00;;;;;;;;;;4971297;28;20061;-82
2021/10/06 05:17:32;;;;;;;2.97;0.93;;;;;;;;;;4970413;28;20042;-81
2021/10/06 05:19:59;;;;;;;1.50;1.35;;;;;;;;;;4971369;28;20492;-80
2021/10/06 05:22:27;;;;;;;3.35;1.80;;;;;;;;;;4970766;28;20084;-82
2021/10/06 05:24:55;;;;;;;2.53;0.63;;;;;;;;;;4963834;28;20054;-82
2021/10/06 05:27:23;;;;;;;0.95;0.93;;;;;;;;;;4949864;28;20070;-82
2021/10/06 05:29:51;;;;;;;1.23;0.70;;;;;;;;;;4953463;28;20061;-84
2021/10/06 05:32:19;;;;;;;1.27;0.85;;;;;;;;;;4972213;28;20046;-82
2021/10/06 05:34:47;;;;;;;2.22;2.08;;;;;;;;;;4973539;28;20839;-82
2021/10/06 05:37:15;;;;;;;0.77;0.77;;;;;;;;;;4972285;28;20131;-80
2021/10/06 05:39:43;;;;;;;1.48;0.77;;;;;;;;;;4971744;28;20519;-80
2021/10/06 05:42:12;;;;;;;2.95;0.80;;;;;;;;;;4968588;28;20595;-80
2021/10/06 05:44:40;;;;;;;1.25;0.93;;;;;;;;;;4971075;28;20058;-80
2021/10/06 05:47:08;;;;;;;1.00;1.00;;;;;;;;;;4971537;28;20058;-80
2021/10/06 05:49:36;;;;;;;1.63;0.68;;;;;;;;;;4971183;28;20062;-79
2021/10/06 05:52:04;;;;;;;2.15;1.95;;;;;;;;;;4970481;28;20050;-80
2021/10/06 05:54:32;;;;;;;1.58;1.35;;;;;;;;;;4970896;28;20598;-80
2021/10/06 05:57:00;;;;;;;1.30;0.90;;;;;;;;;;4969020;28;20447;-80
2021/10/06 05:59:28;;;;;;;0.85;0.70;;;;;;;;;;4953275;28;20051;-80
2021/10/06 06:01:56;;;;;;;2.17;0.82;;;;;;;;;;4949502;29;20054;-80
2021/10/06 06:04:25;;;;;;;1.40;1.30;;;;;;;;;;4961394;28;20043;-79
2021/10/06 06:06:53;;;;;;;1.45;0.93;;;;;;;;;;4970865;28;20046;-79
2021/10/06 06:09:22;;;;;;;1.10;1.00;;;;;;;;;;4953088;28;20046;-80
2021/10/06 06:11:51;;;;;;;6.70;2.17;;;;;;;;;;4967449;28;20055;-79
2021/10/06 06:14:19;;;;;;;0.88;0.80;;;;;;;;;;4969379;28;20054;-80
2021/10/06 06:16:47;;;;;;;0.60;0.60;;;;;;;;;;4970368;28;20480;-79
2021/10/06 06:19:15;;;;;;;4.20;0.95;;;;;;;;;;4953384;28;20361;-80
2021/10/06 06:21:44;;;;;;;1.77;1.00;;;;;;;;;;4948321;29;20043;-80
2021/10/06 06:24:12;;;;;;;3.13;1.23;;;;;;;;;;4951629;29;20393;-80
2021/10/06 06:26:39;;;;;;;4.97;2.03;;;;;;;;;;4946870;28;20051;-80
2021/10/06 06:29:07;;;;;;;1.17;0.93;;;;;;;;;;4951096;28;20067;-79
2021/10/06 06:31:35;;;;;;;0.80;0.80;;;;;;;;;;4950899;29;20413;-79
2021/10/06 06:34:03;;;;;;;2.63;1.98;;;;;;;;;;4951180;28;20055;-80
2021/10/06 06:36:31;;;;;;;0.90;0.77;;;;;;;;;;4950495;29;20051;-79
2021/10/06 06:38:59;;;;;;;0.95;0.85;;;;;;;;;;4950938;28;20053;-79
2021/10/06 06:41:27;;;;;;;2.78;0.80;;;;;;;;;;4948212;28;20047;-80
2021/10/06 06:43:55;;;;;;;1.10;1.00;;;;;;;;;;4951507;29;20040;-80
2021/10/06 06:46:23;;;;;;;1.17;0.68;;;;;;;;;;4949105;28;20058;-80
2021/10/06 06:48:52;;;;;;;1.05;0.93;;;;;;;;;;4950582;28;20047;-80
2021/10/06 06:51:19;;;;;;;5.53;1.08;;;;;;;;;;4948775;29;20348;-80
2021/10/06 06:53:47;;;;;;;1.63;0.90;;;;;;;;;;4950592;28;20058;-79
2021/10/06 06:56:15;;;;;;;1.70;1.52;;;;;;;;;;4948043;29;20062;-79
2021/10/06 06:58:43;;;;;;;3.60;1.70;;;;;;;;;;4950439;28;20054;-79
2021/10/06 07:01:11;;;;;;;0.77;0.77;;;;;;;;;;4948137;29;20051;-80
2021/10/06 07:03:39;;;;;;;1.17;1.10;;;;;;;;;;4950671;29;20509;-80
2021/10/06 07:06:07;;;;;;;1.08;1.05;;;;;;;;;;4950162;28;20058;-80
2021/10/06 07:08:35;;;;;;;1.50;0.88;;;;;;;;;;4950943;29;20397;-79
2021/10/06 07:11:03;;;;;;;1.85;1.30;;;;;;;;;;4947798;28;20062;-80
2021/10/06 07:13:32;;;;;;;0.70;0.63;;;;;;;;;;4949196;28;20085;-79
2021/10/06 07:16:00;;;;;;;4.63;0.73;;;;;;;;;;4949093;29;20051;-80
2021/10/06 07:18:29;;;;;;;0.68;0.68;;;;;;;;;;4948894;29;20039;-79
2021/10/06 07:20:57;;;;;;;4.20;1.77;;;;;;;;;;4949267;28;20058;-79
2021/10/06 07:23:25;;;;;;;2.50;0.80;;;;;;;;;;4950472;29;20136;-79
2021/10/06 07:25:53;;;;;;;0.60;0.60;;;;;;;;;;4944269;28;20051;-80
2021/10/06 07:28:21;;;;;;;0.82;0.70;;;;;;;;;;4930165;29;20055;-79
2021/10/06 07:30:49;;;;;;;1.23;1.13;;;;;;;;;;4928878;29;20051;-80
2021/10/06 07:33:17;;;;;;;0.65;0.65;;;;;;;;;;4930963;28;20089;-80
2021/10/06 07:35:45;;;;;;;0.93;0.77;;;;;;;;;;4931062;29;20051;-80
2021/10/06 07:38:13;;;;;;;0.50;0.50;;;;;;;;;;4930198;29;20489;-80
2021/10/06 07:40:41;;;;;;;3.63;1.02;;;;;;;;;;4930849;29;20050;-80
2021/10/06 07:43:09;;;;;;;0.75;0.75;;;;;;;;;;4929550;29;20477;-79
2021/10/06 07:45:38;;;;;;;13.32;1.45;;;;;;;;;;4930654;28;20500;-80
2021/10/06 07:48:08;;;;;;;0.80;0.80;;;;;;;;;;4931140;29;20090;-80
2021/10/06 07:50:36;;;;;;;0.90;0.90;;;;;;;;;;4928359;29;20075;-81
2021/10/06 07:53:04;;;;;;;0.85;0.85;;;;;;;;;;4928962;29;20063;-80
2021/10/06 07:55:32;;;;;;;0.85;0.85;;;;;;;;;;4929760;29;20047;-81
2021/10/06 07:58:01;;;;;;;3.25;1.08;;;;;;;;;;4928973;29;20059;-80
2021/10/06 08:00:29;;;;;;;1.65;1.05;;;;;;;;;;4928852;29;20066;-80
2021/10/06 08:02:59;;;;;;;1.98;0.80;;;;;;;;;;4930374;29;20050;-80
2021/10/06 08:05:28;;;;;;;1.50;1.00;;;;;;;;;;4948039;28;20043;-80
2021/10/06 08:07:56;;;;;;;0.95;0.90;;;;;;;;;;4949358;29;20397;-80
2021/10/06 08:10:24;;;;;;;1.00;0.90;;;;;;;;;;4947497;29;20044;-80
2021/10/06 08:12:52;;;;;;;1.15;1.05;;;;;;;;;;4950494;28;20069;-81
2021/10/06 08:15:20;;;;;;;2.13;0.77;;;;;;;;;;4951764;29;20069;-78
2021/10/06 08:17:48;;;;;;;0.80;0.80;;;;;;;;;;4951314;28;20400;-82
2021/10/06 08:20:16;;;;;;;1.38;1.30;;;;;;;;;;4951133;29;20639;-81
2021/10/06 08:22:44;;;;;;;2.80;1.23;;;;;;;;;;4950704;28;20044;-81
2021/10/06 08:25:12;;;;;;;3.75;1.00;;;;;;;;;;4950950;28;20062;-81
2021/10/06 08:27:40;;;;;;;0.80;0.80;;;;;;;;;;4950939;29;20056;-80
2021/10/06 08:30:09;;;;;;;0.70;0.70;;;;;;;;;;4950941;28;20912;-81
2021/10/06 08:32:37;;;;;;;0.90;0.90;;;;;;;;;;4951769;29;20051;-81
2021/10/06 08:35:05;;;;;;;5.07;0.85;;;;;;;;;;4947607;28;20059;-81
2021/10/06 08:37:33;;;;;;;0.77;0.77;;;;;;;;;;4931829;29;20055;-81
2021/10/06 08:40:03;;;;;;;0.90;0.80;;;;;;;;;;4915020;29;20064;-82
2021/10/06 08:42:33;;;;;;;0.80;0.80;;;;;;;;;;4929877;29;20047;-81
2021/10/06 08:45:02;;;;;;;2.08;1.33;;;;;;;;;;4930725;28;20055;-81
2021/10/06 08:47:32;;;;;;;1.08;0.82;;;;;;;;;;4946419;29;20043;-81
2021/10/06 08:50:00;;;;;;;0.82;0.60;;;;;;;;;;4935091;29;20043;-81
2021/10/06 08:52:28;;;;;;;0.70;0.70;;;;;;;;;;4935660;29;20066;-82
2021/10/06 08:54:56;;;;;;;2.30;1.13;;;;;;;;;;4934054;29;20056;-80
2021/10/06 08:57:24;;;;;;;0.85;0.80;;;;;;;;;;4934739;29;20095;-81
2021/10/06 08:59:52;;;;;;;2.70;1.65;;;;;;;;;;4935566;29;20051;-81
2021/10/06 09:02:20;;;;;;;2.45;1.08;;;;;;;;;;4935042;29;20055;-81
2021/10/06 09:04:49;;;;;;;3.70;1.10;;;;;;;;;;4947856;28;20066;-80
2021/10/06 09:07:17;;;;;;;0.85;0.70;;;;;;;;;;4954641;29;20055;-81
2021/10/06 09:09:47;;;;;;;0.90;0.90;;;;;;;;;;4954228;28;20043;-80
2021/10/06 09:12:21;;;;;;;2.92;0.80;;;;;;;;;;4953861;29;20477;-80
2021/10/06 09:14:49;;;;;;;1.65;0.80;;;;;;;;;;4954069;28;20062;-79
2021/10/06 09:17:19;;;;;;;1.45;1.10;;;;;;;;;;4953140;28;20067;-80
2021/10/06 09:19:53;;;;;;;0.80;0.80;;;;;;;;;;4954640;29;20062;-81
2021/10/06 09:22:22;;;;;;;1.42;1.35;;;;;;;;;;4953960;28;20039;-81
2021/10/06 09:25:05;;;;;;;0.93;0.93;;;;;;;;;;4947245;29;20046;-79
2021/10/06 09:27:33;;;;;;;0.80;0.77;;;;;;;;;;4934526;29;20052;-80
2021/10/06 09:30:04;;;;;;;1.23;1.17;;;;;;;;;;4947725;28;20043;-80
2021/10/06 09:32:46;;;;;;;7.32;1.17;;;;;;;;;;4957028;28;20397;-80
2021/10/06 09:35:14;;;;;;;;;;;;;;;;;;4951892;28;20051;-81
2021/10/06 09:37:46;;;;;;;2.33;1.17;;;;;;;;;;4953209;28;19949;-80
2021/10/06 09:40:16;;;;;;;1.95;0.95;;;;;;;;;;4943763;28;20059;-81
2021/10/06 09:42:46;;;;;;;1.35;0.90;;;;;;;;;;4950839;28;20043;-82
2021/10/06 09:45:25;;;;;;;0.80;0.80;;;;;;;;;;4952934;28;20054;-80
2021/10/06 09:48:06;;;;;;;1.23;1.00;;;;;;;;;;4953290;29;20043;-81
2021/10/06 09:50:41;;;;;;;1.48;0.95;;;;;;;;;;4952470;28;20432;-83
2021/10/06 09:53:12;;;;;;;2.65;1.60;;;;;;;;;;4952938;28;20556;-83
2021/10/06 09:55:44;;;;;;;0.70;0.68;;;;;;;;;;4953039;29;20055;-82
2021/10/06 09:58:13;;;;;;;1.08;1.00;;;;;;;;;;4944934;28;20052;-80
2021/10/06 10:00:42;;;;;;;1.75;0.80;;;;;;;;;;4946017;28;20369;-83
2021/10/06 10:03:11;;;;;;;1.95;0.77;;;;;;;;;;4952448;29;20075;-81
2021/10/06 10:05:40;;;;;;;0.95;0.95;;;;;;;;;;4951234;29;20047;-82
2021/10/06 10:08:10;;;;;;;5.35;2.03;;;;;;;;;;4952837;29;20812;-82
2021/10/06 10:13:55;;;;;;;5.95;1.05;;;;;;;;;;5069394;23;20496;-82
2021/10/06 10:16:23;;;;;;;0.65;0.50;;;;;;;;;;4935996;29;20050;-82
2021/10/06 10:18:51;;;;;;;0.98;0.88;;;;;;;;;;4918582;29;20054;-81
2021/10/06 10:21:19;;;;;;;2.15;1.05;;;;;;;;;;4951873;29;20043;-83
2021/10/06 10:23:47;;;;;;;1.10;1.00;;;;;;;;;;4952881;29;20047;-82
2021/10/06 10:26:23;;;;;;;0.68;0.68;;;;;;;;;;4934361;29;20411;-85
2021/10/06 10:28:51;;;;;;;0.60;0.60;;;;;;;;;;4919308;29;20043;-81
2021/10/06 10:31:19;;;;;;;1.45;1.35;;;;;;;;;;4903659;29;20066;-82
2021/10/06 10:33:48;;;;;;;1.98;0.68;;;;;;;;;;4932633;29;20063;-82
2021/10/06 10:36:37;;;;;;;3.55;1.42;;;;;;;;;;4895959;29;20489;-81
2021/10/06 10:39:06;;;;;;;0.90;0.90;;;;;;;;;;4914567;29;20051;-81
2021/10/06 10:41:57;;;;;;;0.70;0.70;;;;;;;;;;4939594;29;20062;-83
2021/10/06 10:44:25;;;;;;;;;;;;;;;;;;4930384;29;20413;-82
2021/10/06 10:46:57;;;;;;;0.93;0.80;;;;;;;;;;4934539;29;19933;-81
2021/10/06 10:49:25;;;;;;;5.30;1.92;;;;;;;;;;4952006;29;20055;-78
2021/10/06 10:51:54;;;;;;;0.75;0.75;;;;;;;;;;4964359;28;20058;-82
2021/10/06 10:54:28;;;;;;;1.00;0.80;;;;;;;;;;4970987;28;20069;-82
2021/10/06 10:56:57;;;;;;;1.30;0.75;;;;;;;;;;4952677;28;20050;-83
2021/10/06 10:59:26;;;;;;;0.98;0.93;;;;;;;;;;4937458;28;20059;-83
2021/10/06 11:02:00;;;;;;;3.30;1.60;;;;;;;;;;4937169;28;20062;-84
2021/10/06 11:04:29;;;;;;;0.80;0.80;;;;;;;;;;4948022;28;20396;-84
2021/10/06 11:07:18;;;;;;;1.98;1.00;;;;;;;;;;4940364;28;20061;-85
2021/10/06 11:09:47;;;;;;;0.70;0.70;;;;;;;;;;4939066;28;20055;-85
2021/10/06 11:12:19;;;;;;;1.75;0.75;;;;;;;;;;4938908;28;20077;-88
2021/10/06 11:15:06;;;;;;;2.65;1.30;;;;;;;;;;4941791;28;20057;-85
2021/10/06 11:17:58;;;;;;;0.65;0.65;;;;;;;;;;4937571;28;20047;-87
2021/10/06 11:20:47;;;;;;;2.05;1.95;;;;;;;;;;4948548;28;20058;-82
2021/10/06 11:23:30;;;;;;;4.60;1.10;;;;;;;;;;4888103;28;20249;-85
2021/10/06 11:26:37;;;;;;;1.65;0.90;;;;;;;;;;4920407;29;20058;-84
2021/10/06 11:29:10;;;;;;;1.10;0.93;;;;;;;;;;4897586;29;20052;-85
2021/10/06 11:31:52;;;;;;;0.80;0.80;;;;;;;;;;4920018;29;20074;-85
2021/10/06 11:34:28;;;;;;;0.70;0.70;;;;;;;;;;4918090;29;20068;-86
2021/10/06 11:37:14;;;;;;;0.50;0.50;;;;;;;;;;4936803;28;20066;-89
2021/10/06 11:39:43;;;;;;;;;;;;;;;;;;4937938;28;20062;-86
2021/10/06 11:42:35;;;;;;;0.50;0.50;;;;;;;;;;4921894;28;19922;-85
2021/10/06 11:45:30;;;;;;;1.15;1.13;;;;;;;;;;4930454;28;20047;-85
2021/10/06 11:48:02;;;;;;;0.60;0.60;;;;;;;;;;4938249;28;20082;-87
2021/10/06 11:50:35;;;;;;;0.50;0.50;;;;;;;;;;4909243;29;20054;-85
2021/10/06 11:53:06;;;;;;;0.70;0.70;;;;;;;;;;4936343;28;20540;-88
2021/10/06 11:56:04;;;;;;;1.23;0.70;;;;;;;;;;4939564;28;20047;-83
2021/10/06 11:58:33;;;;;;;2.53;0.82;;;;;;;;;;4940251;28;20047;-86
2021/10/06 12:01:21;;;;;;;0.75;0.50;;;;;;;;;;4928939;28;20047;-86
2021/10/06 12:04:07;;;;;;;0.65;0.60;;;;;;;;;;4941246;28;20055;-86
2021/10/06 12:06:37;;;;;;;0.30;0.30;;;;;;;;;;4952779;28;20493;-84
2021/10/06 12:09:09;;;;;;;0.95;0.80;;;;;;;;;;4952496;28;20058;-84
2021/10/06 12:11:41;;;;;;;2.72;0.95;;;;;;;;;;4968417;28;20054;-84
2021/10/06 12:14:29;;;;;;;1.55;1.05;;;;;;;;;;4969280;28;20078;-87
2021/10/06 12:16:59;;;;;;;0.55;0.55;;;;;;;;;;4970558;28;20428;-87
2021/10/06 12:19:28;;;;;;;1.05;0.88;;;;;;;;;;4953330;28;20054;-87
2021/10/06 12:21:56;;;;;;;1.98;0.60;;;;;;;;;;4920936;28;20039;-89
2021/10/06 12:24:25;;;;;;;0.50;0.50;;;;;;;;;;4939935;28;20051;-85
2021/10/06 12:26:54;;;;;;;3.60;2.08;;;;;;;;;;4973821;28;20039;-84
2021/10/06 12:29:23;;;;;;;0.50;0.50;;;;;;;;;;4974125;28;20401;-82
2021/10/06 12:31:55;;;;;;;0.70;0.50;;;;;;;;;;4957000;28;20054;-82
2021/10/06 12:34:24;;;;;;;0.50;0.50;;;;;;;;;;4956408;28;20054;-82
2021/10/06 12:37:04;;;;;;;0.47;0.43;;;;;;;;;;4956758;28;20714;-85
2021/10/06 12:39:32;;;;;;;1.57;1.07;;;;;;;;;;4955524;29;20058;-85
2021/10/06 12:42:08;;;;;;;1.05;0.52;;;;;;;;;;4953988;29;20051;-86
2021/10/06 12:44:45;;;;;;;2.47;1.08;;;;;;;;;;4955172;29;20048;-87
2021/10/06 12:47:15;;;;;;;1.50;0.80;;;;;;;;;;4936139;29;20054;-85
2021/10/06 12:49:55;;;;;;;0.73;0.68;;;;;;;;;;4937668;29;20047;-86
2021/10/06 12:52:29;;;;;;;0.90;0.60;;;;;;;;;;4955091;29;20055;-86
2021/10/06 12:55:11;;;;;;;1.20;0.68;;;;;;;;;;4908367;29;20059;-85
2021/10/06 12:57:41;;;;;;;0.63;0.63;;;;;;;;;;4900536;29;20051;-84
2021/10/06 13:00:22;;;;;;;0.60;0.60;;;;;;;;;;4933016;29;20059;-87
2021/10/06 13:02:51;;;;;;;3.08;0.63;;;;;;;;;;4932514;29;20050;-84
2021/10/06 13:05:20;;;;;;;0.70;0.70;;;;;;;;;;4946601;28;20403;-84
2021/10/06 13:07:48;;;;;;;1.23;0.82;;;;;;;;;;4932627;29;20063;-82
2021/10/06 13:10:16;;;;;;;1.15;0.88;;;;;;;;;;4932095;29;20051;-83
2021/10/06 13:12:44;;;;;;;2.03;0.80;;;;;;;;;;4931690;28;20059;-85
2021/10/06 13:15:12;;;;;;;1.85;0.68;;;;;;;;;;4933127;29;20059;-83
2021/10/06 13:17:40;;;;;;;1.65;0.98;;;;;;;;;;4932344;29;20085;-83
2021/10/06 13:20:08;;;;;;;0.73;0.65;;;;;;;;;;4951553;28;20051;-83
2021/10/06 13:22:36;;;;;;;0.55;0.55;;;;;;;;;;4972852;28;20062;-83
2021/10/06 13:25:04;;;;;;;0.60;0.60;;;;;;;;;;4966473;28;20522;-83
2021/10/06 13:27:32;;;;;;;0.70;0.70;;;;;;;;;;4955560;28;20062;-82
2021/10/06 13:30:01;;;;;;;1.05;0.95;;;;;;;;;;4973006;28;20058;-82
2021/10/06 13:32:29;;;;;;;1.92;1.10;;;;;;;;;;4973702;28;20055;-83
2021/10/06 13:34:57;;;;;;;1.38;1.27;;;;;;;;;;4954888;28;20043;-84
2021/10/06 13:37:25;;;;;;;0.80;0.80;;;;;;;;;;4973230;28;20042;-83
2021/10/06 13:39:53;;;;;;;0.73;0.73;;;;;;;;;;4973242;28;20054;-83
2021/10/06 13:42:21;;;;;;;0.65;0.60;;;;;;;;;;4972198;28;20404;-83
2021/10/06 13:44:49;;;;;;;4.13;1.25;;;;;;;;;;4972966;28;20400;-82
2021/10/06 13:47:20;;;;;;;1.67;0.85;;;;;;;;;;4956407;28;20051;-83
2021/10/06 13:49:48;;;;;;;0.57;0.57;;;;;;;;;;4972563;28;20055;-83
2021/10/06 13:52:16;;;;;;;0.85;0.60;;;;;;;;;;4973289;28;20049;-83
2021/10/06 13:54:44;;;;;;;0.55;0.55;;;;;;;;;;4955422;28;20515;-82
2021/10/06 13:57:12;;;;;;;1.65;0.88;;;;;;;;;;4972037;28;20073;-82
2021/10/06 13:59:40;;;;;;;0.82;0.82;;;;;;;;;;4936748;29;20051;-82
2021/10/06 14:02:08;;;;;;;1.25;0.90;;;;;;;;;;4952870;29;20055;-82
2021/10/06 14:04:37;;;;;;;1.02;0.98;;;;;;;;;;4960497;28;20057;-83
2021/10/06 14:07:05;;;;;;;1.25;1.15;;;;;;;;;;4948157;28;20046;-82
2021/10/06 14:09:33;;;;;;;5.13;1.20;;;;;;;;;;4942383;28;20059;-82
2021/10/06 14:12:01;;;;;;;2.90;0.70;;;;;;;;;;4934837;28;20066;-82
2021/10/06 14:14:29;;;;;;;1.05;0.70;;;;;;;;;;4937247;28;20050;-81
2021/10/06 14:16:58;;;;;;;0.77;0.73;;;;;;;;;;4908359;29;20409;-82
2021/10/06 14:19:26;;;;;;;0.95;0.93;;;;;;;;;;4919932;29;20396;-83
2021/10/06 14:21:54;;;;;;;1.65;1.10;;;;;;;;;;4949683;28;20051;-82
2021/10/06 14:24:22;;;;;;;0.60;0.47;;;;;;;;;;4950968;29;20043;-82
2021/10/06 14:26:50;;;;;;;0.70;0.70;;;;;;;;;;4933834;29;20535;-82
2021/10/06 14:29:18;;;;;;;1.85;1.75;;;;;;;;;;4947211;28;20043;-82
2021/10/06 14:31:46;;;;;;;2.58;0.75;;;;;;;;;;4950924;29;20445;-81
2021/10/06 14:34:14;;;;;;;0.88;0.88;;;;;;;;;;4916839;29;20050;-82
2021/10/06 14:36:42;;;;;;;0.90;0.90;;;;;;;;;;4932189;29;20066;-81
2021/10/06 14:39:11;;;;;;;1.63;1.52;;;;;;;;;;4951335;29;20059;-82
2021/10/06 14:41:39;;;;;;;3.78;0.88;;;;;;;;;;4931998;29;20052;-83
2021/10/06 14:44:07;;;;;;;4.43;1.13;;;;;;;;;;4933571;29;20497;-82
2021/10/06 14:46:35;;;;;;;0.93;0.90;;;;;;;;;;4916532;29;20440;-82
2021/10/06 14:49:04;;;;;;;0.88;0.88;;;;;;;;;;4934356;29;20393;-83
2021/10/06 14:51:32;;;;;;;1.58;0.60;;;;;;;;;;4949577;29;20055;-83
2021/10/06 14:54:01;;;;;;;0.80;0.80;;;;;;;;;;4934344;29;20119;-83
2021/10/06 14:56:29;;;;;;;4.53;1.00;;;;;;;;;;4934776;29;20051;-84
2021/10/06 14:59:02;;;;;;;1.23;1.15;;;;;;;;;;4927714;28;20050;-84
2021/10/06 15:01:31;;;;;;;1.00;0.63;;;;;;;;;;4951025;28;20055;-83
2021/10/06 15:03:59;;;;;;;0.82;0.68;;;;;;;;;;4970676;28;20042;-83
2021/10/06 15:06:27;;;;;;;2.15;1.98;;;;;;;;;;4968446;28;20401;-83
2021/10/06 15:08:55;;;;;;;1.15;0.77;;;;;;;;;;4952710;28;20274;-83